sensor_id;sensor_type;location;lat;lon;timestamp;pressure;altitude;pressure_sealevel;temperature
15680;BMP180;15488;48.114;11.532;2022-09-19T00:01:08;95119.00;;;15.80
15680;BMP180;15488;48.114;11.532;2022-09-19T00:03:38;95011.00;;;15.90
15680;BMP180;15488;48.114;11.532;2022-09-19T00:06:08;95114.00;;;15.80
15680;BMP180;15488;48.114;11.532;2022-09-19T00:08:36;95122.00;;;15.90
15680;BMP180;15488;48.114;11.532;2022-09-19T00:11:05;95110.00;;;15.80
15680;BMP180;15488;48.114;11.532;2022-09-19T00:13:34;95103.00;;;15.80
15680;BMP180;15488;48.114;11.532;2022-09-19T00:16:02;95105.00;;;15.90
15680;BMP180;15488;48.114;11.532;2022-09-19T00:18:30;95108.00;;;15.80
15680;BMP180;15488;48.114;11.532;2022-09-19T00:20:58;95099.00;;;15.80
15680;BMP180;15488;48.114;11.532;2022-09-19T00:23:27;95095.00;;;15.80
15680;BMP180;15488;48.114;11.532;2022-09-19T00:26:14;95098.00;;;15.80
15680;BMP180;15488;48.114;11.532;2022-09-19T00:28:43;95111.00;;;15.90
15680;BMP180;15488;48.114;11.532;2022-09-19T00:31:15;95132.00;;;15.90
15680;BMP180;15488;48.114;11.532;2022-09-19T00:33:44;95119.00;;;15.90
15680;BMP180;15488;48.114;11.532;2022-09-19T00:36:12;95114.00;;;15.90
15680;BMP180;15488;48.114;11.532;2022-09-19T00:38:42;95110.00;;;15.90
15680;BMP180;15488;48.114;11.532;2022-09-19T00:41:14;95112.00;;;15.90
15680;BMP180;15488;48.114;11.532;2022-09-19T00:43:48;95115.00;;;16.00
15680;BMP180;15488;48.114;11.532;2022-09-19T00:46:17;95117.00;;;15.90
15680;BMP180;15488;48.114;11.532;2022-09-19T00:48:46;95121.00;;;15.90
15680;BMP180;15488;48.114;11.532;2022-09-19T00:51:19;95123.00;;;16.00
15680;BMP180;15488;48.114;11.532;2022-09-19T00:53:49;95121.00;;;16.10
15680;BMP180;15488;48.114;11.532;2022-09-19T00:56:17;95123.00;;;16.00
15680;BMP180;15488;48.114;11.532;2022-09-19T00:58:46;95122.00;;;16.00
15680;BMP180;15488;48.114;11.532;2022-09-19T01:01:14;95134.00;;;16.10
15680;BMP180;15488;48.114;11.532;2022-09-19T01:03:44;95130.00;;;16.00
15680;BMP180;15488;48.114;11.532;2022-09-19T01:06:32;95123.00;;;16.00
15680;BMP180;15488;48.114;11.532;2022-09-19T01:09:30;95119.00;;;16.00
15680;BMP180;15488;48.114;11.532;2022-09-19T01:12:22;95122.00;;;16.00
15680;BMP180;15488;48.114;11.532;2022-09-19T01:15:09;95116.00;;;16.10
15680;BMP180;15488;48.114;11.532;2022-09-19T01:17:43;95110.00;;;16.00
15680;BMP180;15488;48.114;11.532;2022-09-19T01:23:35;95116.00;;;16.00
15680;BMP180;15488;48.114;11.532;2022-09-19T01:26:20;95125.00;;;16.00
15680;BMP180;15488;48.114;11.532;2022-09-19T01:28:56;95112.00;;;16.10
15680;BMP180;15488;48.114;11.532;2022-09-19T01:31:27;95127.00;;;16.10
15680;BMP180;15488;48.114;11.532;2022-09-19T01:33:59;95122.00;;;16.10
15680;BMP180;15488;48.114;11.532;2022-09-19T01:36:35;95129.00;;;16.00
15680;BMP180;15488;48.114;11.532;2022-09-19T01:39:07;95143.00;;;16.00
15680;BMP180;15488;48.114;11.532;2022-09-19T01:41:35;95157.00;;;16.00
15680;BMP180;15488;48.114;11.532;2022-09-19T01:44:05;95163.00;;;16.20
15680;BMP180;15488;48.114;11.532;2022-09-19T01:46:48;95154.00;;;16.10
15680;BMP180;15488;48.114;11.532;2022-09-19T01:49:27;95163.00;;;16.20
15680;BMP180;15488;48.114;11.532;2022-09-19T01:52:11;95174.00;;;16.20
15680;BMP180;15488;48.114;11.532;2022-09-19T01:54:48;95160.00;;;16.20
15680;BMP180;15488;48.114;11.532;2022-09-19T01:57:27;95177.00;;;16.30
15680;BMP180;15488;48.114;11.532;2022-09-19T02:00:07;95164.00;;;16.20
15680;BMP180;15488;48.114;11.532;2022-09-19T02:02:42;95164.00;;;16.20
15680;BMP180;15488;48.114;11.532;2022-09-19T02:05:15;95169.00;;;16.30
15680;BMP180;15488;48.114;11.532;2022-09-19T02:07:56;95181.00;;;16.20
15680;BMP180;15488;48.114;11.532;2022-09-19T02:10:28;95167.00;;;16.20
15680;BMP180;15488;48.114;11.532;2022-09-19T02:12:58;95173.00;;;16.20
15680;BMP180;15488;48.114;11.532;2022-09-19T02:15:31;95189.00;;;16.20
15680;BMP180;15488;48.114;11.532;2022-09-19T02:18:05;95185.00;;;16.20
15680;BMP180;15488;48.114;11.532;2022-09-19T02:20:35;95195.00;;;16.20
15680;BMP180;15488;48.114;11.532;2022-09-19T02:23:08;95183.00;;;16.20
15680;BMP180;15488;48.114;11.532;2022-09-19T02:25:36;95184.00;;;16.20
15680;BMP180;15488;48.114;11.532;2022-09-19T02:28:07;95183.00;;;16.10
15680;BMP180;15488;48.114;11.532;2022-09-19T02:30:37;95180.00;;;16.20
15680;BMP180;15488;48.114;11.532;2022-09-19T02:33:05;95186.00;;;16.10
15680;BMP180;15488;48.114;11.532;2022-09-19T02:35:38;95194.00;;;16.10
15680;BMP180;15488;48.114;11.532;2022-09-19T02:38:13;95194.00;;;16.00
15680;BMP180;15488;48.114;11.532;2022-09-19T02:40:49;95201.00;;;16.00
15680;BMP180;15488;48.114;11.532;2022-09-19T02:43:24;95206.00;;;15.90
15680;BMP180;15488;48.114;11.532;2022-09-19T02:45:58;95207.00;;;15.90
15680;BMP180;15488;48.114;11.532;2022-09-19T02:48:31;95202.00;;;15.90
15680;BMP180;15488;48.114;11.532;2022-09-19T02:51:03;95213.00;;;15.80
15680;BMP180;15488;48.114;11.532;2022-09-19T02:53:36;95218.00;;;15.80
15680;BMP180;15488;48.114;11.532;2022-09-19T02:56:05;95213.00;;;15.80
15680;BMP180;15488;48.114;11.532;2022-09-19T02:58:37;95220.00;;;15.70
15680;BMP180;15488;48.114;11.532;2022-09-19T03:01:12;95216.00;;;15.70
15680;BMP180;15488;48.114;11.532;2022-09-19T03:03:44;95225.00;;;15.80
15680;BMP180;15488;48.114;11.532;2022-09-19T03:06:34;95235.00;;;15.60
15680;BMP180;15488;48.114;11.532;2022-09-19T03:09:05;95234.00;;;15.60
15680;BMP180;15488;48.114;11.532;2022-09-19T03:11:35;95237.00;;;15.50
15680;BMP180;15488;48.114;11.532;2022-09-19T03:14:05;95240.00;;;15.50
15680;BMP180;15488;48.114;11.532;2022-09-19T03:16:40;95238.00;;;15.50
15680;BMP180;15488;48.114;11.532;2022-09-19T03:19:09;95240.00;;;15.50
15680;BMP180;15488;48.114;11.532;2022-09-19T03:21:37;95240.00;;;15.50
15680;BMP180;15488;48.114;11.532;2022-09-19T03:24:06;95242.00;;;15.40
15680;BMP180;15488;48.114;11.532;2022-09-19T03:26:35;95235.00;;;15.50
15680;BMP180;15488;48.114;11.532;2022-09-19T03:29:04;95246.00;;;15.40
15680;BMP180;15488;48.114;11.532;2022-09-19T03:31:34;95248.00;;;15.40
15680;BMP180;15488;48.114;11.532;2022-09-19T03:34:02;95260.00;;;15.30
15680;BMP180;15488;48.114;11.532;2022-09-19T03:36:30;95247.00;;;15.30
15680;BMP180;15488;48.114;11.532;2022-09-19T03:38:59;95249.00;;;15.30
15680;BMP180;15488;48.114;11.532;2022-09-19T03:41:29;95267.00;;;15.20
15680;BMP180;15488;48.114;11.532;2022-09-19T03:43:58;95266.00;;;15.20
15680;BMP180;15488;48.114;11.532;2022-09-19T03:46:28;95264.00;;;15.10
15680;BMP180;15488;48.114;11.532;2022-09-19T03:48:58;95271.00;;;15.10
15680;BMP180;15488;48.114;11.532;2022-09-19T03:51:29;95264.00;;;15.10
15680;BMP180;15488;48.114;11.532;2022-09-19T03:53:57;95271.00;;;15.10
15680;BMP180;15488;48.114;11.532;2022-09-19T03:56:25;95283.00;;;15.10
15680;BMP180;15488;48.114;11.532;2022-09-19T03:58:52;95286.00;;;15.00
15680;BMP180;15488;48.114;11.532;2022-09-19T04:01:20;95286.00;;;15.00
15680;BMP180;15488;48.114;11.532;2022-09-19T04:03:48;95288.00;;;15.00
15680;BMP180;15488;48.114;11.532;2022-09-19T04:06:17;95282.00;;;14.90
15680;BMP180;15488;48.114;11.532;2022-09-19T04:08:45;95303.00;;;14.90
15680;BMP180;15488;48.114;11.532;2022-09-19T04:11:12;95310.00;;;14.90
15680;BMP180;15488;48.114;11.532;2022-09-19T04:13:40;95307.00;;;14.90
15680;BMP180;15488;48.114;11.532;2022-09-19T04:16:07;95303.00;;;14.90
15680;BMP180;15488;48.114;11.532;2022-09-19T04:18:35;95310.00;;;14.80
15680;BMP180;15488;48.114;11.532;2022-09-19T04:21:05;95308.00;;;14.80
15680;BMP180;15488;48.114;11.532;2022-09-19T04:23:34;95309.00;;;14.50
15680;BMP180;15488;48.114;11.532;2022-09-19T04:26:01;95317.00;;;14.70
15680;BMP180;15488;48.114;11.532;2022-09-19T04:28:31;95322.00;;;14.70
15680;BMP180;15488;48.114;11.532;2022-09-19T04:30:59;95316.00;;;14.50
15680;BMP180;15488;48.114;11.532;2022-09-19T04:33:26;95318.00;;;14.50
15680;BMP180;15488;48.114;11.532;2022-09-19T04:35:54;95325.00;;;14.50
15680;BMP180;15488;48.114;11.532;2022-09-19T04:38:27;95325.00;;;14.40
15680;BMP180;15488;48.114;11.532;2022-09-19T04:40:58;95331.00;;;14.40
15680;BMP180;15488;48.114;11.532;2022-09-19T04:43:26;95336.00;;;14.40
15680;BMP180;15488;48.114;11.532;2022-09-19T04:45:54;95340.00;;;14.40
15680;BMP180;15488;48.114;11.532;2022-09-19T04:48:22;95344.00;;;14.30
15680;BMP180;15488;48.114;11.532;2022-09-19T04:50:51;95341.00;;;14.30
15680;BMP180;15488;48.114;11.532;2022-09-19T04:53:20;95345.00;;;14.20
15680;BMP180;15488;48.114;11.532;2022-09-19T04:55:50;95339.00;;;14.20
15680;BMP180;15488;48.114;11.532;2022-09-19T04:58:19;95332.00;;;14.20
15680;BMP180;15488;48.114;11.532;2022-09-19T05:00:50;95345.00;;;14.20
15680;BMP180;15488;48.114;11.532;2022-09-19T05:03:20;95345.00;;;14.20
15680;BMP180;15488;48.114;11.532;2022-09-19T05:05:51;95348.00;;;14.20
15680;BMP180;15488;48.114;11.532;2022-09-19T05:08:21;95342.00;;;14.10
15680;BMP180;15488;48.114;11.532;2022-09-19T05:10:51;95355.00;;;14.10
15680;BMP180;15488;48.114;11.532;2022-09-19T05:13:22;95360.00;;;14.10
15680;BMP180;15488;48.114;11.532;2022-09-19T05:15:50;95360.00;;;14.10
15680;BMP180;15488;48.114;11.532;2022-09-19T05:18:18;95359.00;;;14.10
15680;BMP180;15488;48.114;11.532;2022-09-19T05:20:47;95374.00;;;14.00
15680;BMP180;15488;48.114;11.532;2022-09-19T05:23:16;95365.00;;;14.10
15680;BMP180;15488;48.114;11.532;2022-09-19T05:25:43;95362.00;;;14.00
15680;BMP180;15488;48.114;11.532;2022-09-19T05:28:11;95375.00;;;14.10
15680;BMP180;15488;48.114;11.532;2022-09-19T05:30:46;95382.00;;;14.10
15680;BMP180;15488;48.114;11.532;2022-09-19T05:33:16;95390.00;;;14.20
15680;BMP180;15488;48.114;11.532;2022-09-19T05:35:47;95391.00;;;14.10
15680;BMP180;15488;48.114;11.532;2022-09-19T05:38:15;95388.00;;;14.10
15680;BMP180;15488;48.114;11.532;2022-09-19T05:40:42;95397.00;;;14.10
15680;BMP180;15488;48.114;11.532;2022-09-19T05:43:10;95398.00;;;14.00
15680;BMP180;15488;48.114;11.532;2022-09-19T05:45:39;95403.00;;;14.10
15680;BMP180;15488;48.114;11.532;2022-09-19T05:48:08;95408.00;;;14.10
15680;BMP180;15488;48.114;11.532;2022-09-19T05:50:35;95415.00;;;14.10
15680;BMP180;15488;48.114;11.532;2022-09-19T05:53:03;95407.00;;;14.20
15680;BMP180;15488;48.114;11.532;2022-09-19T05:55:48;95407.00;;;14.20
15680;BMP180;15488;48.114;11.532;2022-09-19T05:58:15;95420.00;;;14.00
15680;BMP180;15488;48.114;11.532;2022-09-19T06:00:44;95419.00;;;14.10
15680;BMP180;15488;48.114;11.532;2022-09-19T06:03:13;95406.00;;;14.10
15680;BMP180;15488;48.114;11.532;2022-09-19T06:05:43;95407.00;;;14.20
15680;BMP180;15488;48.114;11.532;2022-09-19T06:08:12;95423.00;;;14.30
15680;BMP180;15488;48.114;11.532;2022-09-19T06:10:41;95426.00;;;14.20
15680;BMP180;15488;48.114;11.532;2022-09-19T06:13:12;95430.00;;;14.30
15680;BMP180;15488;48.114;11.532;2022-09-19T06:15:39;95449.00;;;14.30
15680;BMP180;15488;48.114;11.532;2022-09-19T06:18:08;95460.00;;;14.30
15680;BMP180;15488;48.114;11.532;2022-09-19T06:20:36;95459.00;;;14.50
15680;BMP180;15488;48.114;11.532;2022-09-19T06:23:04;95450.00;;;14.50
15680;BMP180;15488;48.114;11.532;2022-09-19T06:25:33;95444.00;;;14.50
15680;BMP180;15488;48.114;11.532;2022-09-19T06:28:02;95461.00;;;14.50
15680;BMP180;15488;48.114;11.532;2022-09-19T06:30:31;95472.00;;;14.60
15680;BMP180;15488;48.114;11.532;2022-09-19T06:32:58;95470.00;;;14.60
15680;BMP180;15488;48.114;11.532;2022-09-19T06:35:27;95476.00;;;14.70
15680;BMP180;15488;48.114;11.532;2022-09-19T06:38:01;95472.00;;;14.60
15680;BMP180;15488;48.114;11.532;2022-09-19T06:40:29;95480.00;;;14.60
15680;BMP180;15488;48.114;11.532;2022-09-19T06:42:57;95481.00;;;14.70
15680;BMP180;15488;48.114;11.532;2022-09-19T06:45:26;95478.00;;;14.70
15680;BMP180;15488;48.114;11.532;2022-09-19T06:47:56;95481.00;;;14.60
15680;BMP180;15488;48.114;11.532;2022-09-19T06:50:24;95497.00;;;14.70
15680;BMP180;15488;48.114;11.532;2022-09-19T06:52:54;95495.00;;;14.70
15680;BMP180;15488;48.114;11.532;2022-09-19T06:55:22;95489.00;;;14.70
15680;BMP180;15488;48.114;11.532;2022-09-19T06:57:55;95491.00;;;14.80
15680;BMP180;15488;48.114;11.532;2022-09-19T07:00:26;95495.00;;;14.90
15680;BMP180;15488;48.114;11.532;2022-09-19T07:02:59;95494.00;;;14.90
15680;BMP180;15488;48.114;11.532;2022-09-19T07:05:27;95495.00;;;14.90
15680;BMP180;15488;48.114;11.532;2022-09-19T07:07:58;95501.00;;;15.00
15680;BMP180;15488;48.114;11.532;2022-09-19T07:10:25;95506.00;;;15.00
15680;BMP180;15488;48.114;11.532;2022-09-19T07:12:53;95505.00;;;15.20
15680;BMP180;15488;48.114;11.532;2022-09-19T07:15:22;95525.00;;;15.30
15680;BMP180;15488;48.114;11.532;2022-09-19T07:17:49;95519.00;;;15.30
15680;BMP180;15488;48.114;11.532;2022-09-19T07:20:20;95522.00;;;15.30
15680;BMP180;15488;48.114;11.532;2022-09-19T07:22:57;95519.00;;;15.20
15680;BMP180;15488;48.114;11.532;2022-09-19T07:25:26;95527.00;;;15.30
15680;BMP180;15488;48.114;11.532;2022-09-19T07:27:55;95540.00;;;15.20
15680;BMP180;15488;48.114;11.532;2022-09-19T07:30:22;95534.00;;;15.20
15680;BMP180;15488;48.114;11.532;2022-09-19T07:32:49;95536.00;;;15.30
15680;BMP180;15488;48.114;11.532;2022-09-19T07:35:17;95532.00;;;15.30
15680;BMP180;15488;48.114;11.532;2022-09-19T07:37:48;95539.00;;;15.30
15680;BMP180;15488;48.114;11.532;2022-09-19T07:40:17;95550.00;;;15.30
15680;BMP180;15488;48.114;11.532;2022-09-19T07:42:45;95552.00;;;15.20
15680;BMP180;15488;48.114;11.532;2022-09-19T07:45:12;95566.00;;;15.30
15680;BMP180;15488;48.114;11.532;2022-09-19T07:47:44;95559.00;;;15.30
15680;BMP180;15488;48.114;11.532;2022-09-19T07:50:12;95573.00;;;15.40
15680;BMP180;15488;48.114;11.532;2022-09-19T07:52:43;95567.00;;;15.40
15680;BMP180;15488;48.114;11.532;2022-09-19T07:55:12;95567.00;;;15.50
15680;BMP180;15488;48.114;11.532;2022-09-19T07:57:49;95580.00;;;15.60
15680;BMP180;15488;48.114;11.532;2022-09-19T08:00:17;95583.00;;;15.60
15680;BMP180;15488;48.114;11.532;2022-09-19T08:02:53;95586.00;;;15.70
15680;BMP180;15488;48.114;11.532;2022-09-19T08:05:21;95584.00;;;15.70
15680;BMP180;15488;48.114;11.532;2022-09-19T08:07:48;95589.00;;;15.80
15680;BMP180;15488;48.114;11.532;2022-09-19T08:10:16;95592.00;;;15.90
15680;BMP180;15488;48.114;11.532;2022-09-19T08:12:46;95593.00;;;16.00
15680;BMP180;15488;48.114;11.532;2022-09-19T08:15:15;95604.00;;;16.00
15680;BMP180;15488;48.114;11.532;2022-09-19T08:17:53;95601.00;;;16.00
15680;BMP180;15488;48.114;11.532;2022-09-19T08:20:21;95612.00;;;16.10
15680;BMP180;15488;48.114;11.532;2022-09-19T08:22:48;95608.00;;;16.10
15680;BMP180;15488;48.114;11.532;2022-09-19T08:25:16;95613.00;;;16.10
15680;BMP180;15488;48.114;11.532;2022-09-19T08:27:45;95625.00;;;16.20
15680;BMP180;15488;48.114;11.532;2022-09-19T08:30:13;95615.00;;;16.20
15680;BMP180;15488;48.114;11.532;2022-09-19T08:32:43;95615.00;;;16.20
15680;BMP180;15488;48.114;11.532;2022-09-19T08:35:11;95619.00;;;16.30
15680;BMP180;15488;48.114;11.532;2022-09-19T08:37:40;95627.00;;;16.40
15680;BMP180;15488;48.114;11.532;2022-09-19T08:40:11;95625.00;;;16.40
15680;BMP180;15488;48.114;11.532;2022-09-19T08:42:51;95629.00;;;16.50
15680;BMP180;15488;48.114;11.532;2022-09-19T08:45:26;95638.00;;;16.50
15680;BMP180;15488;48.114;11.532;2022-09-19T08:47:56;95634.00;;;16.50
15680;BMP180;15488;48.114;11.532;2022-09-19T08:50:25;95639.00;;;16.50
15680;BMP180;15488;48.114;11.532;2022-09-19T08:52:56;95631.00;;;16.60
15680;BMP180;15488;48.114;11.532;2022-09-19T08:55:27;95635.00;;;16.60
15680;BMP180;15488;48.114;11.532;2022-09-19T08:57:59;95636.00;;;16.70
15680;BMP180;15488;48.114;11.532;2022-09-19T09:00:32;95635.00;;;16.70
15680;BMP180;15488;48.114;11.532;2022-09-19T09:03:04;95642.00;;;16.70
15680;BMP180;15488;48.114;11.532;2022-09-19T09:05:43;95645.00;;;16.80
15680;BMP180;15488;48.114;11.532;2022-09-19T09:08:20;95641.00;;;16.80
15680;BMP180;15488;48.114;11.532;2022-09-19T09:10:53;95648.00;;;16.90
15680;BMP180;15488;48.114;11.532;2022-09-19T09:13:35;95651.00;;;16.80
15680;BMP180;15488;48.114;11.532;2022-09-19T09:16:10;95647.00;;;16.80
15680;BMP180;15488;48.114;11.532;2022-09-19T09:18:50;95646.00;;;16.90
15680;BMP180;15488;48.114;11.532;2022-09-19T09:21:27;95644.00;;;17.00
15680;BMP180;15488;48.114;11.532;2022-09-19T09:24:02;95641.00;;;17.00
15680;BMP180;15488;48.114;11.532;2022-09-19T09:26:32;95641.00;;;17.10
15680;BMP180;15488;48.114;11.532;2022-09-19T09:29:10;95652.00;;;17.10
15680;BMP180;15488;48.114;11.532;2022-09-19T09:31:40;95643.00;;;17.10
15680;BMP180;15488;48.114;11.532;2022-09-19T09:34:16;95645.00;;;17.10
15680;BMP180;15488;48.114;11.532;2022-09-19T09:36:50;95635.00;;;17.20
15680;BMP180;15488;48.114;11.532;2022-09-19T09:39:22;95647.00;;;17.30
15680;BMP180;15488;48.114;11.532;2022-09-19T09:41:53;95651.00;;;17.30
15680;BMP180;15488;48.114;11.532;2022-09-19T09:44:37;95650.00;;;17.30
15680;BMP180;15488;48.114;11.532;2022-09-19T09:47:18;95645.00;;;17.30
15680;BMP180;15488;48.114;11.532;2022-09-19T09:49:48;95650.00;;;17.40
15680;BMP180;15488;48.114;11.532;2022-09-19T09:52:27;95650.00;;;17.40
15680;BMP180;15488;48.114;11.532;2022-09-19T09:55:07;95648.00;;;17.40
15680;BMP180;15488;48.114;11.532;2022-09-19T09:58:00;95648.00;;;17.50
15680;BMP180;15488;48.114;11.532;2022-09-19T10:00:34;95647.00;;;17.50
15680;BMP180;15488;48.114;11.532;2022-09-19T10:03:29;95656.00;;;17.60
15680;BMP180;15488;48.114;11.532;2022-09-19T10:06:09;95663.00;;;17.70
15680;BMP180;15488;48.114;11.532;2022-09-19T10:08:43;95661.00;;;17.70
15680;BMP180;15488;48.114;11.532;2022-09-19T10:11:14;95668.00;;;17.70
15680;BMP180;15488;48.114;11.532;2022-09-19T10:13:46;95653.00;;;17.70
15680;BMP180;15488;48.114;11.532;2022-09-19T10:16:19;95666.00;;;17.80
15680;BMP180;15488;48.114;11.532;2022-09-19T10:18:52;95660.00;;;17.80
15680;BMP180;15488;48.114;11.532;2022-09-19T10:21:21;95656.00;;;17.90
15680;BMP180;15488;48.114;11.532;2022-09-19T10:23:49;95654.00;;;17.90
15680;BMP180;15488;48.114;11.532;2022-09-19T10:26:26;95656.00;;;18.00
15680;BMP180;15488;48.114;11.532;2022-09-19T10:28:54;95670.00;;;18.10
15680;BMP180;15488;48.114;11.532;2022-09-19T10:31:32;95662.00;;;18.10
15680;BMP180;15488;48.114;11.532;2022-09-19T10:34:01;95668.00;;;18.20
15680;BMP180;15488;48.114;11.532;2022-09-19T10:36:32;95663.00;;;18.10
15680;BMP180;15488;48.114;11.532;2022-09-19T10:39:07;95661.00;;;18.20
15680;BMP180;15488;48.114;11.532;2022-09-19T10:41:40;95654.00;;;18.20
15680;BMP180;15488;48.114;11.532;2022-09-19T10:44:17;95655.00;;;18.30
15680;BMP180;15488;48.114;11.532;2022-09-19T10:46:50;95659.00;;;18.40
15680;BMP180;15488;48.114;11.532;2022-09-19T10:49:21;95649.00;;;18.50
15680;BMP180;15488;48.114;11.532;2022-09-19T10:51:52;95658.00;;;18.50
15680;BMP180;15488;48.114;11.532;2022-09-19T10:54:30;95654.00;;;18.50
15680;BMP180;15488;48.114;11.532;2022-09-19T10:57:02;95657.00;;;18.50
15680;BMP180;15488;48.114;11.532;2022-09-19T10:59:32;95653.00;;;18.60
15680;BMP180;15488;48.114;11.532;2022-09-19T11:02:17;95663.00;;;18.60
15680;BMP180;15488;48.114;11.532;2022-09-19T11:04:55;95653.00;;;18.70
15680;BMP180;15488;48.114;11.532;2022-09-19T11:07:28;95653.00;;;18.70
15680;BMP180;15488;48.114;11.532;2022-09-19T11:09:57;95657.00;;;18.80
15680;BMP180;15488;48.114;11.532;2022-09-19T11:12:28;95656.00;;;18.80
15680;BMP180;15488;48.114;11.532;2022-09-19T11:14:57;95662.00;;;18.90
15680;BMP180;15488;48.114;11.532;2022-09-19T11:17:52;95653.00;;;18.90
15680;BMP180;15488;48.114;11.532;2022-09-19T11:20:40;95661.00;;;18.90
15680;BMP180;15488;48.114;11.532;2022-09-19T11:26:17;95660.00;;;19.10
15680;BMP180;15488;48.114;11.532;2022-09-19T11:28:58;95665.00;;;19.10
15680;BMP180;15488;48.114;11.532;2022-09-19T11:31:37;95661.00;;;19.20
15680;BMP180;15488;48.114;11.532;2022-09-19T11:34:15;95656.00;;;19.30
15680;BMP180;15488;48.114;11.532;2022-09-19T11:36:57;95656.00;;;19.30
15680;BMP180;15488;48.114;11.532;2022-09-19T11:39:41;95660.00;;;19.40
15680;BMP180;15488;48.114;11.532;2022-09-19T11:42:23;95654.00;;;19.40
15680;BMP180;15488;48.114;11.532;2022-09-19T11:44:58;95660.00;;;19.40
15680;BMP180;15488;48.114;11.532;2022-09-19T11:47:51;95660.00;;;19.40
15680;BMP180;15488;48.114;11.532;2022-09-19T11:50:36;95665.00;;;19.40
15680;BMP180;15488;48.114;11.532;2022-09-19T11:53:47;95657.00;;;19.50
15680;BMP180;15488;48.114;11.532;2022-09-19T11:56:29;95648.00;;;19.40
15680;BMP180;15488;48.114;11.532;2022-09-19T11:59:10;95656.00;;;19.50
15680;BMP180;15488;48.114;11.532;2022-09-19T12:01:50;95645.00;;;19.50
15680;BMP180;15488;48.114;11.532;2022-09-19T12:04:32;95656.00;;;19.60
15680;BMP180;15488;48.114;11.532;2022-09-19T12:07:20;95644.00;;;19.70
15680;BMP180;15488;48.114;11.532;2022-09-19T12:09:56;95639.00;;;19.70
15680;BMP180;15488;48.114;11.532;2022-09-19T12:12:29;95631.00;;;19.80
15680;BMP180;15488;48.114;11.532;2022-09-19T12:15:01;95633.00;;;19.80
15680;BMP180;15488;48.114;11.532;2022-09-19T12:17:35;95621.00;;;19.90
15680;BMP180;15488;48.114;11.532;2022-09-19T12:20:16;95628.00;;;19.90
15680;BMP180;15488;48.114;11.532;2022-09-19T12:22:50;95619.00;;;19.90
15680;BMP180;15488;48.114;11.532;2022-09-19T12:25:21;95619.00;;;19.90
15680;BMP180;15488;48.114;11.532;2022-09-19T12:27:51;95611.00;;;20.00
15680;BMP180;15488;48.114;11.532;2022-09-19T12:30:21;95616.00;;;20.00
15680;BMP180;15488;48.114;11.532;2022-09-19T12:32:52;95615.00;;;20.10
15680;BMP180;15488;48.114;11.532;2022-09-19T12:35:26;95615.00;;;20.20
15680;BMP180;15488;48.114;11.532;2022-09-19T12:38:07;95606.00;;;20.30
15680;BMP180;15488;48.114;11.532;2022-09-19T12:40:44;95605.00;;;20.30
15680;BMP180;15488;48.114;11.532;2022-09-19T12:43:23;95601.00;;;20.30
15680;BMP180;15488;48.114;11.532;2022-09-19T12:45:59;95604.00;;;20.40
15680;BMP180;15488;48.114;11.532;2022-09-19T12:48:38;95603.00;;;20.30
15680;BMP180;15488;48.114;11.532;2022-09-19T12:51:12;95558.00;;;20.30
15680;BMP180;15488;48.114;11.532;2022-09-19T12:53:48;95608.00;;;20.30
15680;BMP180;15488;48.114;11.532;2022-09-19T12:56:20;95605.00;;;20.30
15680;BMP180;15488;48.114;11.532;2022-09-19T12:58:54;95607.00;;;20.20
15680;BMP180;15488;48.114;11.532;2022-09-19T13:01:30;95622.00;;;20.20
15680;BMP180;15488;48.114;11.532;2022-09-19T13:04:13;95609.00;;;20.20
15680;BMP180;15488;48.114;11.532;2022-09-19T13:06:49;95604.00;;;20.10
15680;BMP180;15488;48.114;11.532;2022-09-19T13:09:23;95602.00;;;20.10
15680;BMP180;15488;48.114;11.532;2022-09-19T13:11:54;95601.00;;;20.10
15680;BMP180;15488;48.114;11.532;2022-09-19T13:14:31;95605.00;;;20.20
15680;BMP180;15488;48.114;11.532;2022-09-19T13:17:11;95604.00;;;20.10
15680;BMP180;15488;48.114;11.532;2022-09-19T13:19:57;95607.00;;;20.10
15680;BMP180;15488;48.114;11.532;2022-09-19T13:22:47;95614.00;;;20.10
15680;BMP180;15488;48.114;11.532;2022-09-19T13:25:34;95604.00;;;20.10
15680;BMP180;15488;48.114;11.532;2022-09-19T13:28:23;95604.00;;;20.10
15680;BMP180;15488;48.114;11.532;2022-09-19T13:30:53;95607.00;;;20.10
15680;BMP180;15488;48.114;11.532;2022-09-19T13:33:27;95606.00;;;20.00
15680;BMP180;15488;48.114;11.532;2022-09-19T13:36:08;95603.00;;;20.00
15680;BMP180;15488;48.114;11.532;2022-09-19T13:38:37;95601.00;;;20.00
15680;BMP180;15488;48.114;11.532;2022-09-19T13:41:10;95610.00;;;19.90
15680;BMP180;15488;48.114;11.532;2022-09-19T13:43:53;95605.00;;;19.90
15680;BMP180;15488;48.114;11.532;2022-09-19T13:46:27;95607.00;;;19.90
15680;BMP180;15488;48.114;11.532;2022-09-19T13:48:58;95603.00;;;19.90
15680;BMP180;15488;48.114;11.532;2022-09-19T13:51:35;95604.00;;;19.90
15680;BMP180;15488;48.114;11.532;2022-09-19T13:54:28;95605.00;;;20.00
15680;BMP180;15488;48.114;11.532;2022-09-19T13:57:08;95604.00;;;20.00
15680;BMP180;15488;48.114;11.532;2022-09-19T13:59:39;95599.00;;;20.10
15680;BMP180;15488;48.114;11.532;2022-09-19T14:02:33;95605.00;;;20.10
15680;BMP180;15488;48.114;11.532;2022-09-19T14:05:06;95605.00;;;20.10
15680;BMP180;15488;48.114;11.532;2022-09-19T14:07:53;95604.00;;;20.20
15680;BMP180;15488;48.114;11.532;2022-09-19T14:10:26;95603.00;;;20.00
15680;BMP180;15488;48.114;11.532;2022-09-19T14:13:00;95601.00;;;20.30
15680;BMP180;15488;48.114;11.532;2022-09-19T14:18:50;95613.00;;;20.80
15680;BMP180;15488;48.114;11.532;2022-09-19T14:21:53;95604.00;;;21.50
15680;BMP180;15488;48.114;11.532;2022-09-19T14:24:45;95605.00;;;21.80
15680;BMP180;15488;48.114;11.532;2022-09-19T14:36:27;95595.00;;;23.50
15680;BMP180;15488;48.114;11.532;2022-09-19T14:39:25;95608.00;;;23.40
15680;BMP180;15488;48.114;11.532;2022-09-19T14:42:04;95605.00;;;23.30
15680;BMP180;15488;48.114;11.532;2022-09-19T14:44:56;95595.00;;;23.30
15680;BMP180;15488;48.114;11.532;2022-09-19T14:47:30;95603.00;;;23.50
15680;BMP180;15488;48.114;11.532;2022-09-19T14:50:04;95598.00;;;23.70